Time;durP1;ratioP1;P1;durP2;ratioP2;P2;SDS_P1;SDS_P2;PMS_P1;PMS_P2;Temp;Humidity;BMP_temperature;BMP_pressure;BME280_temperature;BME280_humidity;BME280_pressure;Samples;Min_cycle;Max_cycle;Signal;HPM_P1;HPM_P2
2022/09/06 00:00:44;;;;;;;6.60;1.88;;;22.30;73.80;;;;;;5060791;28;45282;-74
2022/09/06 00:03:11;;;;;;;5.90;1.50;;;22.10;73.10;;;;;;5047973;28;45434;-74
2022/09/06 00:05:40;;;;;;;5.78;1.90;;;22.20;73.60;;;;;;5066533;28;45235;-74
2022/09/06 00:08:07;;;;;;;3.75;2.00;;;22.20;73.00;;;;;;5066278;28;45587;-74
2022/09/06 00:10:34;;;;;;;5.88;2.00;;;22.10;71.70;;;;;;5066269;28;45518;-74
2022/09/06 00:13:02;;;;;;;10.02;1.95;;;22.10;72.80;;;;;;5052882;28;45329;-74
2022/09/06 00:15:29;;;;;;;9.05;2.33;;;22.00;75.40;;;;;;5068015;28;45274;-75
2022/09/06 00:17:58;;;;;;;7.65;2.30;;;21.90;76.30;;;;;;5064428;28;46497;-74
2022/09/06 00:20:26;;;;;;;7.53;2.25;;;21.80;77.70;;;;;;5064575;28;45635;-74
2022/09/06 00:22:57;;;;;;;5.13;2.10;;;21.70;82.60;;;;;;5064007;28;45646;-74
2022/09/06 00:25:24;;;;;;;7.07;2.30;;;21.80;88.20;;;;;;5054122;28;45413;-74
2022/09/06 00:27:54;;;;;;;7.53;2.40;;;21.70;85.70;;;;;;5059179;28;46558;-73
2022/09/06 00:30:21;;;;;;;8.07;2.40;;;21.50;85.10;;;;;;5063240;28;45324;-74
2022/09/06 00:32:48;;;;;;;12.07;2.42;;;21.40;84.80;;;;;;5057922;28;45331;-73
2022/09/06 00:35:15;;;;;;;7.57;2.13;;;21.40;86.90;;;;;;5060603;28;45465;-74
2022/09/06 00:37:42;;;;;;;4.20;2.10;;;21.40;88.80;;;;;;5064881;28;47071;-74
2022/09/06 00:40:11;;;;;;;6.63;2.20;;;21.50;89.10;;;;;;5063299;28;45297;-73
2022/09/06 00:42:38;;;;;;;9.18;2.03;;;21.70;90.40;;;;;;5054890;28;45313;-74
2022/09/06 00:45:06;;;;;;;8.77;2.20;;;21.90;90.80;;;;;;5065203;28;45329;-74
2022/09/06 00:47:34;;;;;;;5.00;2.00;;;21.90;90.50;;;;;;5065871;28;47867;-74
2022/09/06 00:50:02;;;;;;;5.55;2.25;;;22.00;91.20;;;;;;5065563;28;45322;-74
2022/09/06 00:52:30;;;;;;;7.00;2.30;;;22.00;91.50;;;;;;5064995;28;45337;-74
2022/09/06 00:54:57;;;;;;;7.45;2.17;;;22.00;91.60;;;;;;5065517;28;45432;-74
2022/09/06 00:57:26;;;;;;;4.40;2.22;;;21.90;92.90;;;;;;5064299;28;48098;-74
2022/09/06 00:59:54;;;;;;;6.30;3.10;;;21.90;94.70;;;;;;5065108;28;45389;-74
2022/09/06 01:02:21;;;;;;;6.70;2.13;;;21.60;99.30;;;;;;5063993;28;45456;-74
2022/09/06 01:04:50;;;;;;;6.55;2.58;;;21.10;99.90;;;;;;5064633;28;45231;-74
2022/09/06 01:07:24;;;;;;;4.88;2.10;;;20.80;99.90;;;;;;5062820;28;46356;-74
2022/09/06 01:10:04;;;;;;;9.13;2.28;;;20.50;99.90;;;;;;5076565;28;46059;-74
2022/09/06 01:12:57;;;;;;;8.93;3.25;;;20.60;99.90;;;;;;5064859;28;45363;-74
2022/09/06 01:15:32;;;;;;;7.95;2.20;;;20.60;99.90;;;;;;5056181;28;45737;-73
2022/09/06 01:18:09;;;;;;;4.80;2.45;;;20.50;99.90;;;;;;5064913;28;45448;-74
2022/09/06 01:21:13;;;;;;;7.00;2.22;;;20.60;99.90;;;;;;5063545;28;45328;-74
2022/09/06 01:23:59;;;;;;;5.03;2.05;;;20.50;99.90;;;;;;5037039;28;45512;-74
2022/09/06 01:26:52;;;;;;;3.72;1.90;;;20.60;99.90;;;;;;5064638;28;45477;-74
2022/09/06 01:29:28;;;;;;;9.93;2.05;;;20.70;99.90;;;;;;5064563;28;46657;-74
2022/09/06 01:32:02;;;;;;;3.35;2.08;;;20.70;99.90;;;;;;5064845;28;45312;-72
2022/09/06 01:34:35;;;;;;;5.30;2.13;;;20.90;99.90;;;;;;5060206;28;45421;-74
2022/09/06 01:37:09;;;;;;;9.05;2.40;;;21.00;99.90;;;;;;5064949;28;45459;-74
2022/09/06 01:39:37;;;;;;;3.05;1.98;;;21.00;99.90;;;;;;5065518;28;46577;-74
2022/09/06 01:42:07;;;;;;;4.68;2.33;;;20.90;99.90;;;;;;5064697;28;45257;-74
2022/09/06 01:44:37;;;;;;;7.65;2.35;;;21.00;99.90;;;;;;5065380;28;45242;-74
2022/09/06 01:47:13;;;;;;;8.13;1.80;;;21.00;99.90;;;;;;5081233;28;45320;-74
2022/09/06 01:49:54;;;;;;;4.55;2.00;;;21.10;99.90;;;;;;5064849;28;47057;-74
2022/09/06 01:52:26;;;;;;;3.55;1.58;;;21.10;99.90;;;;;;5064590;28;45295;-74
2022/09/06 01:55:07;;;;;;;4.05;1.73;;;21.20;99.90;;;;;;5064759;28;45332;-74
2022/09/06 01:57:50;;;;;;;5.65;2.10;;;21.30;99.90;;;;;;5064017;28;45398;-74
2022/09/06 02:00:21;;;;;;;4.53;1.80;;;21.40;99.90;;;;;;5074168;28;45561;-74
2022/09/06 02:02:59;;;;;;;4.40;2.03;;;21.50;99.90;;;;;;5078796;28;45196;-74
2022/09/06 02:05:30;;;;;;;3.53;1.70;;;21.50;99.90;;;;;;5056552;28;45284;-74
2022/09/06 02:08:01;;;;;;;2.30;1.58;;;21.50;99.90;;;;;;5064846;28;45452;-74
2022/09/06 02:10:31;;;;;;;3.92;1.88;;;21.50;99.90;;;;;;5064994;28;45379;-74
2022/09/06 02:13:01;;;;;;;5.45;1.67;;;21.50;99.90;;;;;;5069124;28;45310;-74
2022/09/06 02:15:42;;;;;;;4.80;1.80;;;21.60;99.90;;;;;;5085550;28;45231;-74
2022/09/06 02:18:14;;;;;;;2.80;1.67;;;21.60;99.90;;;;;;5067477;28;45207;-74
2022/09/06 02:20:47;;;;;;;4.38;1.40;;;21.60;99.90;;;;;;5064165;28;48117;-74
2022/09/06 02:23:16;;;;;;;3.17;1.90;;;21.70;99.90;;;;;;5082913;28;45427;-73
2022/09/06 02:25:50;;;;;;;1.75;1.50;;;21.70;99.90;;;;;;5085796;28;45313;-74
2022/09/06 02:28:17;;;;;;;4.53;1.95;;;21.70;99.90;;;;;;5041913;28;45230;-74
2022/09/06 02:30:50;;;;;;;1.77;1.60;;;21.70;99.90;;;;;;5063268;28;47543;-74
2022/09/06 02:33:20;;;;;;;2.45;1.50;;;21.70;99.90;;;;;;5065595;28;45972;-74
2022/09/06 02:35:49;;;;;;;4.00;1.90;;;21.60;99.90;;;;;;5064973;28;45522;-74
2022/09/06 02:38:17;;;;;;;3.95;1.63;;;21.60;99.90;;;;;;5064907;28;45440;-74
2022/09/06 02:40:45;;;;;;;2.33;1.55;;;21.50;99.90;;;;;;5064703;28;45215;-74
2022/09/06 02:43:12;;;;;;;3.33;1.60;;;21.50;99.90;;;;;;5064456;28;45783;-74
2022/09/06 02:45:39;;;;;;;7.40;1.65;;;21.60;99.70;;;;;;5064736;28;45239;-74
2022/09/06 02:48:07;;;;;;;5.07;1.77;;;21.50;99.10;;;;;;5064850;28;45255;-74
2022/09/06 02:50:34;;;;;;;5.60;1.67;;;21.50;99.10;;;;;;5064594;28;46596;-74
2022/09/06 02:53:05;;;;;;;2.75;1.58;;;21.50;98.80;;;;;;5064223;28;45288;-74
2022/09/06 02:55:32;;;;;;;4.20;1.75;;;21.50;98.70;;;;;;5065079;28;45298;-74
2022/09/06 02:57:59;;;;;;;2.78;1.42;;;21.60;98.40;;;;;;5065381;28;45390;-74
2022/09/06 03:00:27;;;;;;;2.25;1.27;;;21.60;98.50;;;;;;5068041;28;45286;-74
2022/09/06 03:02:54;;;;;;;4.05;1.58;;;21.70;98.40;;;;;;5068150;28;45403;-74
2022/09/06 03:05:22;;;;;;;6.82;1.67;;;21.70;98.50;;;;;;5069057;28;45407;-74
2022/09/06 03:07:49;;;;;;;2.47;1.75;;;21.70;98.20;;;;;;5068804;28;45193;-74
2022/09/06 03:10:16;;;;;;;2.75;1.83;;;21.70;99.00;;;;;;5067794;28;48315;-74
2022/09/06 03:12:43;;;;;;;3.85;1.35;;;21.80;98.40;;;;;;5068218;28;45354;-74
2022/09/06 03:15:11;;;;;;;2.92;1.80;;;21.80;98.20;;;;;;5068726;28;45277;-70
2022/09/06 03:17:38;;;;;;;2.80;1.38;;;21.80;97.70;;;;;;5068690;28;45198;-74
2022/09/06 03:20:06;;;;;;;2.38;1.63;;;21.80;97.80;;;;;;5067515;28;46680;-74
2022/09/06 03:22:34;;;;;;;2.83;1.50;;;21.80;98.20;;;;;;5067826;28;45338;-74
2022/09/06 03:25:00;;;;;;;3.03;1.60;;;21.80;98.40;;;;;;5067929;28;45384;-74
2022/09/06 03:27:28;;;;;;;2.58;1.55;;;21.80;98.60;;;;;;5047930;28;45287;-74
2022/09/06 03:29:55;;;;;;;2.28;1.75;;;21.80;98.30;;;;;;5063497;28;47010;-74
2022/09/06 03:32:21;;;;;;;3.55;1.73;;;21.90;98.60;;;;;;5067526;28;45277;-74
2022/09/06 03:34:48;;;;;;;2.45;1.55;;;21.80;98.50;;;;;;5067909;28;45269;-74
2022/09/06 03:37:15;;;;;;;2.17;1.67;;;21.90;98.30;;;;;;5067658;28;45428;-74
2022/09/06 03:39:43;;;;;;;3.15;1.98;;;21.90;98.30;;;;;;5067483;28;45443;-74
2022/09/06 03:42:10;;;;;;;4.60;1.75;;;21.90;98.20;;;;;;5067982;28;45392;-74
2022/09/06 03:44:37;;;;;;;4.32;1.77;;;21.80;98.30;;;;;;5068102;28;45159;-74
2022/09/06 03:47:04;;;;;;;3.97;1.88;;;21.90;98.30;;;;;;5067669;28;45436;-74
2022/09/06 03:49:31;;;;;;;2.03;1.67;;;21.90;98.20;;;;;;5067750;28;45205;-74
2022/09/06 03:51:57;;;;;;;6.13;2.33;;;21.80;98.20;;;;;;5067140;28;45962;-74
2022/09/06 03:54:24;;;;;;;4.40;1.88;;;21.80;97.80;;;;;;5067209;28;45278;-74
2022/09/06 03:56:52;;;;;;;4.93;2.47;;;21.80;98.00;;;;;;5071699;28;45625;-74
2022/09/06 03:59:19;;;;;;;3.92;2.25;;;21.80;97.90;;;;;;5066973;28;45530;-74
2022/09/06 04:01:46;;;;;;;4.70;2.28;;;21.80;97.90;;;;;;5066967;28;45707;-74
2022/09/06 04:04:12;;;;;;;5.03;1.98;;;21.90;97.80;;;;;;5067433;28;45333;-74
2022/09/06 04:06:39;;;;;;;3.08;2.17;;;21.80;98.00;;;;;;5066921;28;45189;-73
2022/09/06 04:09:06;;;;;;;6.22;2.25;;;21.80;98.70;;;;;;5086326;27;46429;-74
2022/09/06 04:11:33;;;;;;;3.33;2.15;;;21.70;98.40;;;;;;5087283;28;45388;-74
2022/09/06 04:14:01;;;;;;;6.13;2.80;;;21.80;98.40;;;;;;5077078;28;45446;-74
2022/09/06 04:16:27;;;;;;;5.47;2.40;;;21.90;97.80;;;;;;5067163;28;45523;-74
2022/09/06 04:18:54;;;;;;;3.78;2.67;;;21.90;97.90;;;;;;5066782;28;47517;-74
2022/09/06 04:21:21;;;;;;;6.40;1.98;;;21.90;97.90;;;;;;5067010;28;45680;-74
2022/09/06 04:23:48;;;;;;;8.85;2.88;;;21.90;98.10;;;;;;5067058;28;45210;-74
2022/09/06 04:26:15;;;;;;;4.82;2.72;;;21.80;97.80;;;;;;5067285;28;45325;-74
2022/09/06 04:28:42;;;;;;;3.33;2.30;;;21.80;98.00;;;;;;5067168;28;45584;-74
2022/09/06 04:31:10;;;;;;;8.25;2.63;;;21.80;98.00;;;;;;5066620;28;45221;-74
2022/09/06 04:33:37;;;;;;;5.68;2.78;;;21.70;98.20;;;;;;5066995;28;45233;-74
2022/09/06 04:36:06;;;;;;;4.10;2.15;;;21.70;98.00;;;;;;5066864;28;45447;-74
2022/09/06 04:38:36;;;;;;;6.18;2.33;;;21.70;98.30;;;;;;5066661;28;46548;-74
2022/09/06 04:41:02;;;;;;;3.78;2.63;;;21.70;97.80;;;;;;5066711;28;45264;-74
2022/09/06 04:43:29;;;;;;;3.13;2.13;;;21.70;98.00;;;;;;5066979;28;45325;-75
2022/09/06 04:45:56;;;;;;;4.63;2.38;;;21.60;97.80;;;;;;5066958;28;45171;-74
2022/09/06 04:48:24;;;;;;;3.65;2.50;;;21.60;97.30;;;;;;5066709;28;46620;-75
2022/09/06 04:50:51;;;;;;;5.03;2.47;;;21.60;97.20;;;;;;5067221;28;45199;-74
2022/09/06 04:53:18;;;;;;;5.40;2.80;;;21.50;96.80;;;;;;5066745;28;45303;-74
2022/09/06 04:55:44;;;;;;;5.80;2.70;;;21.60;96.80;;;;;;5067131;28;45478;-74
2022/09/06 04:58:11;;;;;;;6.85;2.60;;;21.60;96.20;;;;;;5066141;28;46321;-75
2022/09/06 05:00:40;;;;;;;5.18;2.22;;;21.60;96.50;;;;;;5068604;28;45285;-74
2022/09/06 05:03:08;;;;;;;6.13;2.30;;;21.60;96.50;;;;;;5067290;28;45188;-75
2022/09/06 05:05:36;;;;;;;9.13;2.78;;;21.70;96.60;;;;;;5067100;28;45306;-75
2022/09/06 05:08:03;;;;;;;4.80;2.47;;;21.70;96.70;;;;;;5066557;28;45436;-75
2022/09/06 05:10:30;;;;;;;4.90;2.50;;;21.70;96.90;;;;;;5066421;28;46664;-75
2022/09/06 05:12:57;;;;;;;4.38;2.20;;;21.70;96.80;;;;;;5066363;28;45287;-75
2022/09/06 05:15:25;;;;;;;3.67;2.30;;;21.60;96.80;;;;;;5066394;28;45332;-75
2022/09/06 05:17:52;;;;;;;3.70;2.35;;;21.60;96.80;;;;;;5066064;28;46131;-75
2022/09/06 05:20:19;;;;;;;3.58;2.40;;;21.60;96.80;;;;;;5066073;28;45781;-75
2022/09/06 05:22:53;;;;;;;8.35;2.53;;;21.60;97.40;;;;;;5068980;28;45345;-74
2022/09/06 05:25:20;;;;;;;5.97;2.58;;;21.70;96.90;;;;;;5066236;28;45455;-74
2022/09/06 05:27:47;;;;;;;5.18;2.45;;;21.70;96.90;;;;;;5059314;28;47536;-74
2022/09/06 05:30:14;;;;;;;2.95;2.33;;;21.70;96.90;;;;;;5064097;28;45444;-75
2022/09/06 05:32:41;;;;;;;8.18;2.58;;;21.70;96.80;;;;;;5065683;28;45258;-74
2022/09/06 05:35:08;;;;;;;3.53;2.45;;;21.70;96.70;;;;;;5065282;28;45432;-75
2022/09/06 05:37:35;;;;;;;9.10;2.40;;;21.70;96.90;;;;;;5065341;28;48896;-74
2022/09/06 05:40:04;;;;;;;6.43;2.72;;;21.70;96.80;;;;;;5065138;28;45132;-74
2022/09/06 05:42:30;;;;;;;11.77;3.00;;;21.80;95.90;;;;;;5065782;28;45349;-74
2022/09/06 05:44:57;;;;;;;6.53;2.75;;;21.60;96.60;;;;;;5065373;28;45419;-74
2022/09/06 05:47:24;;;;;;;5.70;2.55;;;21.60;96.70;;;;;;5065369;28;46863;-75
2022/09/06 05:49:51;;;;;;;5.78;2.67;;;21.50;97.00;;;;;;5065616;28;45646;-75
2022/09/06 05:52:18;;;;;;;5.60;2.20;;;21.90;98.20;;;;;;5067663;28;45254;-74
2022/09/06 05:54:45;;;;;;;3.95;2.70;;;22.20;97.30;;;;;;5066093;28;45223;-75
2022/09/06 05:57:13;;;;;;;5.05;2.80;;;22.40;97.40;;;;;;5067519;28;47043;-75
2022/09/06 05:59:40;;;;;;;5.55;2.58;;;22.50;96.50;;;;;;5085964;28;45146;-75
2022/09/06 06:02:06;;;;;;;5.10;2.70;;;22.30;95.60;;;;;;5086050;28;45273;-75
2022/09/06 06:04:33;;;;;;;3.63;2.47;;;22.20;95.20;;;;;;5086283;28;45325;-75
2022/09/06 06:07:01;;;;;;;7.88;3.55;;;22.20;96.70;;;;;;5078647;28;47769;-75
2022/09/06 06:09:28;;;;;;;6.93;3.42;;;22.20;95.40;;;;;;5065493;28;45269;-74
2022/09/06 06:11:55;;;;;;;7.00;2.85;;;22.10;96.60;;;;;;5065648;28;45204;-74
2022/09/06 06:14:23;;;;;;;4.57;2.60;;;22.10;97.40;;;;;;5065624;28;45290;-75
2022/09/06 06:16:50;;;;;;;8.27;4.13;;;22.30;96.90;;;;;;5065469;28;47167;-75
2022/09/06 06:19:17;;;;;;;7.43;3.63;;;22.40;96.00;;;;;;5065663;28;45388;-75
2022/09/06 06:21:58;;;;;;;8.68;3.65;;;22.40;96.30;;;;;;5065764;28;45290;-74
2022/09/06 06:24:25;;;;;;;6.38;3.47;;;22.40;96.10;;;;;;5084829;28;45189;-74
2022/09/06 06:26:51;;;;;;;3.35;2.33;;;22.40;96.30;;;;;;5070195;28;45395;-74
2022/09/06 06:29:18;;;;;;;4.30;2.67;;;22.60;96.30;;;;;;5056680;28;45340;-75
2022/09/06 06:31:46;;;;;;;7.75;3.40;;;22.60;96.30;;;;;;5064660;28;45343;-74
2022/09/06 06:34:13;;;;;;;10.30;3.17;;;22.60;96.10;;;;;;5064272;28;45401;-74
2022/09/06 06:36:40;;;;;;;32.03;7.15;;;22.60;96.20;;;;;;5064636;28;45680;-75
2022/09/06 06:39:08;;;;;;;50.33;7.50;;;21.90;95.70;;;;;;5064752;28;45332;-74
2022/09/06 06:41:35;;;;;;;41.53;7.50;;;21.40;97.30;;;;;;5064596;28;45325;-75
2022/09/06 06:44:04;;;;;;;55.63;9.10;;;21.20;98.10;;;;;;5065920;28;45601;-74
2022/09/06 06:46:33;;;;;;;39.53;8.52;;;21.00;98.70;;;;;;5067907;28;46577;-74
2022/09/06 06:49:01;;;;;;;11.32;5.25;;;21.00;98.70;;;;;;5068387;28;45170;-74
2022/09/06 06:51:30;;;;;;;11.57;5.68;;;20.90;98.60;;;;;;5079661;28;45291;-74
2022/09/06 06:53:57;;;;;;;27.90;7.43;;;21.00;98.80;;;;;;5064480;28;45248;-74
2022/09/06 06:56:25;;;;;;;22.10;6.20;;;20.90;98.70;;;;;;5076661;28;47544;-75
2022/09/06 06:58:56;;;;;;;26.85;6.75;;;20.90;99.30;;;;;;5084619;28;45232;-74
2022/09/06 07:01:24;;;;;;;14.80;5.60;;;21.00;99.00;;;;;;5084804;28;45339;-74
2022/09/06 07:03:53;;;;;;;17.45;6.10;;;21.00;99.10;;;;;;5069530;28;45331;-74
2022/09/06 07:06:21;;;;;;;13.68;5.57;;;21.10;99.10;;;;;;5066167;28;45256;-75
2022/09/06 07:08:48;;;;;;;12.68;5.50;;;21.00;98.90;;;;;;5064649;28;45497;-74
2022/09/06 07:11:17;;;;;;;13.05;5.70;;;21.10;98.70;;;;;;5071327;28;45425;-74
2022/09/06 07:13:48;;;;;;;10.20;6.03;;;21.20;98.50;;;;;;5064579;28;45439;-74
2022/09/06 07:16:18;;;;;;;8.82;6.20;;;21.20;98.20;;;;;;5064030;28;48525;-75
2022/09/06 07:18:45;;;;;;;19.20;5.82;;;21.30;98.30;;;;;;5047409;28;45132;-74
2022/09/06 07:21:13;;;;;;;31.70;7.18;;;21.30;98.00;;;;;;5064692;28;45260;-75
2022/09/06 07:23:42;;;;;;;27.60;6.72;;;21.40;97.60;;;;;;5064643;28;45483;-74
2022/09/06 07:26:14;;;;;;;9.75;5.43;;;21.40;97.30;;;;;;5063743;28;48106;-74
2022/09/06 07:28:41;;;;;;;14.50;5.60;;;21.00;98.20;;;;;;5065147;28;45405;-76
2022/09/06 07:31:08;;;;;;;12.10;5.72;;;20.80;99.20;;;;;;5065149;28;45234;-75
2022/09/06 07:33:35;;;;;;;18.67;5.80;;;20.90;99.30;;;;;;5065120;28;45477;-76
2022/09/06 07:36:03;;;;;;;29.02;6.32;;;20.90;98.30;;;;;;5067975;28;47038;-75
2022/09/06 07:38:56;;;;;;;23.95;5.45;;;20.90;98.90;;;;;;5065026;28;45248;-75
2022/09/06 07:41:23;;;;;;;8.70;4.50;;;21.00;98.60;;;;;;5064938;28;45398;-75
2022/09/06 07:43:54;;;;;;;8.27;4.32;;;20.90;98.70;;;;;;5065257;28;45555;-76
2022/09/06 07:46:21;;;;;;;9.75;4.47;;;21.00;98.70;;;;;;5067694;28;46571;-76
2022/09/06 07:52:10;;;;;;;18.90;4.63;;;21.10;98.00;;;;;;5065432;28;45162;-76
2022/09/06 07:54:38;;;;;;;33.10;5.70;;;21.30;97.00;;;;;;5068308;28;45417;-76
2022/09/06 07:57:05;;;;;;;13.45;5.07;;;21.40;96.60;;;;;;5068367;28;47339;-76
2022/09/06 07:59:32;;;;;;;8.73;4.60;;;21.40;96.60;;;;;;5068323;28;45328;-76
2022/09/06 08:01:59;;;;;;;7.28;4.10;;;21.40;96.60;;;;;;5068187;28;45153;-76
2022/09/06 08:04:26;;;;;;;9.82;4.80;;;21.50;97.00;;;;;;5068531;28;45103;-76
2022/09/06 08:06:52;;;;;;;9.25;4.65;;;21.60;96.30;;;;;;5068289;28;47478;-76
2022/09/06 08:09:19;;;;;;;8.77;5.47;;;21.70;96.20;;;;;;5068320;28;45271;-76
2022/09/06 08:15:10;;;;;;;12.82;4.20;;;21.80;95.30;;;;;;5065263;28;45165;-76
2022/09/06 08:17:37;;;;;;;12.73;3.85;;;22.10;95.90;;;;;;5067587;28;46999;-75
2022/09/06 08:20:04;;;;;;;10.32;3.47;;;22.30;95.50;;;;;;5067911;28;45121;-76
2022/09/06 08:22:33;;;;;;;7.00;3.47;;;22.40;95.40;;;;;;5068037;28;45092;-76
2022/09/06 08:24:59;;;;;;;5.30;2.50;;;22.50;95.00;;;;;;5068448;28;45228;-76
2022/09/06 08:27:27;;;;;;;6.80;2.35;;;22.60;94.90;;;;;;5071004;28;46687;-75
2022/09/06 08:29:54;;;;;;;4.85;2.53;;;22.70;94.90;;;;;;5067732;28;45287;-74
2022/09/06 08:32:22;;;;;;;3.50;2.05;;;22.70;93.60;;;;;;5067424;28;45312;-75
2022/09/06 08:34:49;;;;;;;6.00;2.40;;;22.70;94.20;;;;;;5067153;28;45594;-75
2022/09/06 08:37:16;;;;;;;3.67;2.05;;;22.80;94.00;;;;;;5067900;28;47233;-75
2022/09/06 08:39:43;;;;;;;4.97;2.35;;;22.80;94.10;;;;;;5067580;28;45238;-75
2022/09/06 08:42:11;;;;;;;5.28;1.65;;;22.80;93.70;;;;;;5067542;28;45218;-75
2022/09/06 08:44:41;;;;;;;5.10;2.30;;;22.80;94.00;;;;;;5067674;28;45312;-75
2022/09/06 08:47:09;;;;;;;3.15;1.85;;;22.80;94.00;;;;;;5067528;28;45279;-75
2022/09/06 08:49:41;;;;;;;3.05;1.92;;;22.90;93.50;;;;;;5067406;28;45399;-76
2022/09/06 08:52:22;;;;;;;2.88;1.70;;;22.90;93.30;;;;;;5067383;28;45108;-75
2022/09/06 08:54:57;;;;;;;4.68;1.98;;;22.90;93.00;;;;;;5067369;28;45428;-75
2022/09/06 08:57:43;;;;;;;4.00;1.70;;;22.90;93.80;;;;;;5066713;28;45320;-75
2022/09/06 09:00:12;;;;;;;4.97;2.08;;;23.00;93.20;;;;;;5067116;28;45268;-75
2022/09/06 09:02:45;;;;;;;4.35;1.52;;;23.00;93.40;;;;;;5067232;28;45166;-75
2022/09/06 09:05:22;;;;;;;2.42;1.77;;;23.00;93.50;;;;;;5067233;28;45277;-75
2022/09/06 09:07:59;;;;;;;4.80;1.92;;;23.00;93.20;;;;;;5067466;28;45198;-75
2022/09/06 09:10:29;;;;;;;3.17;1.50;;;23.00;92.80;;;;;;5067389;28;45186;-75
2022/09/06 09:12:56;;;;;;;3.83;1.60;;;23.00;93.90;;;;;;5067325;28;45194;-75
2022/09/06 09:15:24;;;;;;;2.65;1.80;;;23.00;93.30;;;;;;5067293;28;45459;-75
2022/09/06 09:17:52;;;;;;;4.18;1.90;;;23.00;93.50;;;;;;5066843;28;48417;-75
2022/09/06 09:20:21;;;;;;;3.13;1.60;;;23.00;93.30;;;;;;5069470;28;45648;-75
2022/09/06 09:22:49;;;;;;;3.30;1.50;;;23.00;92.80;;;;;;5067174;28;45288;-75
2022/09/06 09:25:21;;;;;;;1.98;1.67;;;23.00;93.20;;;;;;5066987;28;45588;-75
2022/09/06 09:27:56;;;;;;;3.10;1.75;;;23.00;93.10;;;;;;5066472;28;48036;-75
2022/09/06 09:30:24;;;;;;;1.92;1.50;;;23.10;92.80;;;;;;5067225;28;45871;-75
2022/09/06 09:32:51;;;;;;;2.65;1.65;;;23.00;93.30;;;;;;5066929;28;45080;-75
2022/09/06 09:35:23;;;;;;;6.68;1.50;;;23.10;93.30;;;;;;5066577;28;45634;-75
2022/09/06 09:38:00;;;;;;;2.88;1.70;;;23.10;93.50;;;;;;5066505;28;45878;-75
2022/09/06 09:40:37;;;;;;;3.10;1.52;;;23.10;93.30;;;;;;5066720;28;45144;-75
2022/09/06 09:43:15;;;;;;;3.75;1.30;;;23.10;92.60;;;;;;5066975;28;45202;-75
2022/09/06 09:45:43;;;;;;;2.30;1.50;;;23.10;92.80;;;;;;5067170;28;45182;-75
2022/09/06 09:48:25;;;;;;;4.32;1.30;;;23.10;93.30;;;;;;5066670;28;46270;-75
2022/09/06 09:50:54;;;;;;;2.97;1.80;;;23.20;92.40;;;;;;5066447;28;45349;-75
2022/09/06 09:53:23;;;;;;;2.80;1.42;;;23.20;92.50;;;;;;5066632;28;45124;-75
2022/09/06 09:55:55;;;;;;;2.65;1.55;;;23.20;92.30;;;;;;5066714;28;45177;-75
2022/09/06 09:58:31;;;;;;;3.10;1.45;;;23.20;92.50;;;;;;5065910;28;45267;-75
2022/09/06 10:01:16;;;;;;;3.30;1.90;;;23.20;92.90;;;;;;5066694;28;45167;-75
2022/09/06 10:03:43;;;;;;;2.55;1.52;;;23.20;93.40;;;;;;5063491;28;45135;-75
2022/09/06 10:06:14;;;;;;;1.55;1.20;;;23.20;92.40;;;;;;5066279;28;45545;-75
2022/09/06 10:08:43;;;;;;;4.70;1.48;;;23.20;93.20;;;;;;5065239;28;47759;-75
2022/09/06 10:11:14;;;;;;;3.22;1.52;;;23.20;91.50;;;;;;5067632;28;45355;-73
2022/09/06 10:13:42;;;;;;;3.38;1.52;;;23.20;91.20;;;;;;5067580;28;45084;-75
2022/09/06 10:16:09;;;;;;;3.25;1.35;;;23.20;89.90;;;;;;5066344;28;45403;-75
2022/09/06 10:18:37;;;;;;;2.67;1.98;;;23.20;92.30;;;;;;5065628;28;46539;-74
2022/09/06 10:21:06;;;;;;;3.78;1.60;;;23.20;92.10;;;;;;5065795;28;45917;-74
2022/09/06 10:23:48;;;;;;;3.08;1.25;;;23.20;92.20;;;;;;5066126;28;45266;-74
2022/09/06 10:26:22;;;;;;;2.33;1.38;;;23.20;91.70;;;;;;5065878;28;45374;-75
2022/09/06 10:28:58;;;;;;;4.40;1.40;;;23.20;92.00;;;;;;5065662;28;46840;-75
2022/09/06 10:32:02;;;;;;;3.08;1.20;;;23.20;91.60;;;;;;5065949;28;45295;-75
2022/09/06 10:34:50;;;;;;;2.00;1.38;;;23.30;91.30;;;;;;5023981;28;45169;-75
2022/09/06 10:37:37;;;;;;;2.00;1.20;;;23.20;92.60;;;;;;5025337;28;45242;-75
2022/09/06 10:40:07;;;;;;;1.50;1.25;;;23.20;92.50;;;;;;5065929;28;48153;-75
2022/09/06 10:42:42;;;;;;;3.72;1.35;;;23.20;92.90;;;;;;5066121;28;45147;-75
2022/09/06 10:45:27;;;;;;;1.92;1.02;;;23.20;93.00;;;;;;5065839;28;45139;-75
2022/09/06 10:48:01;;;;;;;2.05;1.20;;;23.20;93.00;;;;;;5064901;28;45135;-75
2022/09/06 10:50:38;;;;;;;1.67;1.10;;;23.20;92.70;;;;;;5065969;28;46610;-75
2022/09/06 10:53:13;;;;;;;1.58;1.17;;;23.20;91.50;;;;;;5062894;28;45216;-75
2022/09/06 10:55:44;;;;;;;1.73;1.30;;;23.30;89.30;;;;;;5065995;28;45319;-75
2022/09/06 10:58:12;;;;;;;3.55;1.48;;;23.30;91.00;;;;;;5065891;28;45359;-75
2022/09/06 11:00:45;;;;;;;3.47;1.08;;;23.20;90.10;;;;;;5065776;28;45244;-75
2022/09/06 11:03:22;;;;;;;1.98;0.90;;;23.30;90.50;;;;;;5065798;28;45396;-75
2022/09/06 11:05:53;;;;;;;1.48;1.00;;;23.30;91.20;;;;;;5068340;28;45078;-74
2022/09/06 11:08:25;;;;;;;2.85;1.08;;;23.20;91.30;;;;;;5065548;28;45467;-75
2022/09/06 11:10:54;;;;;;;1.60;0.90;;;23.20;91.20;;;;;;5065307;28;48291;-75
2022/09/06 11:13:24;;;;;;;1.63;1.10;;;23.20;92.40;;;;;;5065412;28;45243;-75
2022/09/06 11:15:55;;;;;;;1.50;1.13;;;23.20;90.30;;;;;;5065641;28;45096;-75
2022/09/06 11:18:27;;;;;;;1.67;1.02;;;23.20;91.50;;;;;;5065513;28;45408;-75
2022/09/06 11:21:11;;;;;;;3.25;1.00;;;23.20;92.30;;;;;;5069042;28;47019;-74
2022/09/06 11:27:06;;;;;;;3.90;1.75;;;23.20;92.00;;;;;;5066105;28;45203;-74
2022/09/06 11:29:34;;;;;;;1.67;1.05;;;23.30;89.20;;;;;;5069531;28;45206;-75
2022/09/06 11:32:03;;;;;;;5.30;1.10;;;23.30;88.10;;;;;;5068866;28;47608;-75
2022/09/06 11:34:32;;;;;;;2.22;1.08;;;23.30;90.60;;;;;;5068519;28;45336;-75
2022/09/06 11:37:00;;;;;;;2.55;1.08;;;23.40;90.60;;;;;;5068882;28;45338;-75
2022/09/06 11:39:31;;;;;;;2.03;1.23;;;23.40;90.60;;;;;;5068706;28;45442;-75
2022/09/06 11:41:59;;;;;;;2.58;1.15;;;23.30;91.00;;;;;;5068701;28;45232;-75
2022/09/06 11:44:54;;;;;;;4.68;1.30;;;23.40;89.40;;;;;;5069016;28;45205;-75
2022/09/06 11:47:38;;;;;;;10.52;1.27;;;23.50;86.10;;;;;;5068683;28;45157;-75
2022/09/06 11:50:46;;;;;;;1.10;0.95;;;23.50;89.10;;;;;;5068616;28;45162;-75
2022/09/06 11:53:17;;;;;;;3.55;1.02;;;23.50;89.80;;;;;;5068048;28;45443;-75
2022/09/06 11:55:45;;;;;;;4.30;1.23;;;23.40;90.70;;;;;;5068431;28;45198;-74
2022/09/06 11:58:23;;;;;;;4.25;1.30;;;23.50;90.30;;;;;;5069865;28;45092;-75
2022/09/06 12:01:31;;;;;;;3.83;1.35;;;23.60;87.90;;;;;;5068493;28;45413;-75
2022/09/06 12:04:05;;;;;;;1.30;1.17;;;23.60;85.20;;;;;;5031561;28;45569;-75
2022/09/06 12:06:34;;;;;;;1.00;0.90;;;23.60;91.10;;;;;;5068101;28;45363;-75
2022/09/06 12:09:01;;;;;;;3.22;1.38;;;23.60;91.50;;;;;;5068136;28;45175;-75
2022/09/06 12:11:42;;;;;;;2.47;0.90;;;23.70;88.00;;;;;;5068439;28;45098;-75
2022/09/06 12:14:28;;;;;;;2.85;1.00;;;23.80;91.20;;;;;;5067810;28;46533;-75
2022/09/06 12:17:46;;;;;;;4.20;1.88;;;23.90;91.50;;;;;;5068170;28;45594;-75
2022/09/06 12:20:53;;;;;;;3.10;1.38;;;24.20;81.90;;;;;;5068123;28;45170;-75
2022/09/06 12:23:41;;;;;;;3.35;1.17;;;24.70;77.20;;;;;;5067498;28;45407;-75
2022/09/06 12:26:08;;;;;;;2.90;1.38;;;24.70;88.50;;;;;;5067625;28;45598;-74
2022/09/06 12:28:43;;;;;;;2.55;1.02;;;24.50;90.60;;;;;;5067570;28;45150;-74
2022/09/06 12:31:27;;;;;;;2.33;1.17;;;24.50;88.40;;;;;;5066800;28;45245;-74
2022/09/06 12:33:54;;;;;;;1.83;1.23;;;24.80;86.80;;;;;;5067664;28;45140;-74
2022/09/06 12:36:28;;;;;;;3.30;1.15;;;24.80;90.00;;;;;;5067427;28;46266;-74
2022/09/06 12:38:57;;;;;;;2.55;1.25;;;24.70;90.70;;;;;;5067323;28;45573;-74
2022/09/06 12:41:25;;;;;;;3.65;1.40;;;24.70;90.60;;;;;;5067665;28;45238;-75
2022/09/06 12:44:44;;;;;;;3.60;1.17;;;24.80;84.80;;;;;;5067857;28;45490;-75
2022/09/06 12:47:14;;;;;;;5.70;1.67;;;24.80;89.40;;;;;;5067399;28;47775;-75
2022/09/06 12:49:41;;;;;;;6.20;1.70;;;24.90;87.50;;;;;;5068075;28;45305;-73
2022/09/06 12:52:50;;;;;;;2.58;1.30;;;24.80;88.70;;;;;;5069657;28;45178;-75
2022/09/06 12:55:22;;;;;;;5.25;1.52;;;24.80;90.80;;;;;;5067426;28;45261;-75
2022/09/06 12:57:51;;;;;;;2.72;1.20;;;24.80;90.00;;;;;;5066676;28;47560;-75
2022/09/06 13:00:19;;;;;;;12.88;2.20;;;25.00;68.10;;;;;;5067178;28;45179;-75
2022/09/06 13:02:55;;;;;;;5.25;1.08;;;25.40;71.40;;;;;;5067336;28;45317;-74
2022/09/06 13:05:41;;;;;;;4.03;1.40;;;25.40;72.60;;;;;;5046922;28;45289;-74
2022/09/06 13:08:14;;;;;;;7.13;1.33;;;25.20;81.80;;;;;;5046505;28;47474;-75
2022/09/06 13:10:46;;;;;;;3.20;1.45;;;25.00;66.20;;;;;;5046430;28;45445;-75
2022/09/06 13:13:19;;;;;;;5.38;1.20;;;24.80;78.10;;;;;;5056977;28;45225;-75
2022/09/06 13:15:46;;;;;;;2.63;1.05;;;24.80;65.60;;;;;;5066773;28;45444;-75